Time;durP1;ratioP1;P1;durP2;ratioP2;P2;SDS_P1;SDS_P2;PMS_P1;PMS_P2;Temp;Humidity;BMP_temperature;BMP_pressure;BME280_temperature;BME280_humidity;BME280_pressure;Samples;Min_cycle;Max_cycle;Signal;HPM_P1;HPM_P2
2022/03/14 00:00:01;;;;;;;6.38;2.75;;;;;;;;;;5027812;28;20120;-77
2022/03/14 00:02:27;;;;;;;5.40;2.33;;;;;;;;;;5027654;28;20050;-78
2022/03/14 00:04:54;;;;;;;4.95;2.17;;;;;;;;;;5027656;28;20512;-77
2022/03/14 00:07:22;;;;;;;4.97;2.15;;;;;;;;;;5028282;28;20120;-77
2022/03/14 00:09:48;;;;;;;4.25;2.20;;;;;;;;;;5027185;28;20058;-77
2022/03/14 00:12:19;;;;;;;4.25;2.03;;;;;;;;;;5001325;28;20137;-77
2022/03/14 00:14:46;;;;;;;4.13;1.90;;;;;;;;;;5026878;28;20513;-77
2022/03/14 00:17:14;;;;;;;4.05;1.88;;;;;;;;;;5009767;28;20596;-78
2022/03/14 00:19:40;;;;;;;4.60;2.00;;;;;;;;;;5027915;28;20058;-78
2022/03/14 00:22:07;;;;;;;3.42;1.73;;;;;;;;;;5009779;28;20058;-77
2022/03/14 00:24:35;;;;;;;3.83;1.70;;;;;;;;;;5009910;28;20497;-77
2022/03/14 00:27:02;;;;;;;4.80;1.60;;;;;;;;;;5027151;28;20054;-77
2022/03/14 00:29:28;;;;;;;5.00;1.77;;;;;;;;;;5024805;28;20505;-78
2022/03/14 00:31:55;;;;;;;3.88;2.00;;;;;;;;;;5027879;28;20054;-77
2022/03/14 00:34:21;;;;;;;3.80;1.60;;;;;;;;;;5027542;28;20120;-77
2022/03/14 00:36:48;;;;;;;3.50;1.60;;;;;;;;;;5027536;28;20061;-77
2022/03/14 00:39:14;;;;;;;3.67;1.60;;;;;;;;;;5023157;28;20054;-78
2022/03/14 00:41:41;;;;;;;3.65;1.63;;;;;;;;;;5016429;28;20141;-77
2022/03/14 00:44:07;;;;;;;3.60;1.42;;;;;;;;;;5009459;28;20121;-77
2022/03/14 00:46:35;;;;;;;3.90;1.58;;;;;;;;;;5026673;28;20053;-77
2022/03/14 00:49:01;;;;;;;3.45;1.50;;;;;;;;;;5030184;28;20421;-78
2022/03/14 00:51:28;;;;;;;3.50;1.40;;;;;;;;;;5030626;28;20058;-78
2022/03/14 00:53:54;;;;;;;5.60;1.88;;;;;;;;;;5031082;28;20050;-78
2022/03/14 00:56:21;;;;;;;3.42;1.50;;;;;;;;;;5013482;28;20582;-77
2022/03/14 00:58:47;;;;;;;3.40;1.60;;;;;;;;;;5030666;28;20575;-77
2022/03/14 01:01:14;;;;;;;3.90;1.70;;;;;;;;;;5013323;28;20078;-77
2022/03/14 01:03:40;;;;;;;3.72;1.65;;;;;;;;;;5008787;28;20058;-79
2022/03/14 01:06:07;;;;;;;3.00;1.38;;;;;;;;;;5012936;28;20116;-77
2022/03/14 01:08:33;;;;;;;3.50;1.60;;;;;;;;;;5012982;28;20057;-78
2022/03/14 01:10:59;;;;;;;3.67;1.63;;;;;;;;;;5029582;28;20563;-77
2022/03/14 01:13:26;;;;;;;3.53;1.50;;;;;;;;;;5030608;28;20209;-77
2022/03/14 01:15:53;;;;;;;3.88;1.70;;;;;;;;;;5010902;28;20053;-77
2022/03/14 01:18:19;;;;;;;3.83;1.75;;;;;;;;;;5028382;28;20509;-77
2022/03/14 01:20:46;;;;;;;4.60;1.80;;;;;;;;;;5029547;28;20050;-77
2022/03/14 01:23:12;;;;;;;3.70;1.60;;;;;;;;;;5030067;28;20539;-77
2022/03/14 01:25:39;;;;;;;4.00;1.77;;;;;;;;;;5030995;28;20081;-77
2022/03/14 01:28:05;;;;;;;4.22;1.60;;;;;;;;;;5029611;28;20050;-77
2022/03/14 01:30:32;;;;;;;3.67;1.67;;;;;;;;;;5012546;28;20128;-77
2022/03/14 01:32:59;;;;;;;5.00;2.03;;;;;;;;;;5012686;28;20192;-76
2022/03/14 01:35:26;;;;;;;3.97;1.70;;;;;;;;;;5009364;28;20198;-78
2022/03/14 01:37:53;;;;;;;3.65;1.63;;;;;;;;;;5030052;28;20053;-77
2022/03/14 01:40:19;;;;;;;4.30;1.80;;;;;;;;;;5011909;28;20050;-77
2022/03/14 01:42:46;;;;;;;4.15;1.75;;;;;;;;;;5030144;28;20113;-77
2022/03/14 01:45:15;;;;;;;3.90;1.50;;;;;;;;;;5029797;28;20501;-77
2022/03/14 01:47:43;;;;;;;4.47;1.77;;;;;;;;;;5029057;28;20108;-77
2022/03/14 01:50:10;;;;;;;4.13;1.80;;;;;;;;;;5012005;28;20520;-78
2022/03/14 01:52:36;;;;;;;3.85;1.90;;;;;;;;;;5028218;28;20108;-77
2022/03/14 01:55:04;;;;;;;3.75;1.92;;;;;;;;;;5026036;28;20093;-79
2022/03/14 01:57:30;;;;;;;3.80;1.90;;;;;;;;;;5029215;28;20559;-78
2022/03/14 01:59:57;;;;;;;4.53;2.00;;;;;;;;;;5028969;28;20105;-77
2022/03/14 02:02:24;;;;;;;4.28;1.90;;;;;;;;;;5029237;28;20559;-77
2022/03/14 02:04:50;;;;;;;4.90;1.92;;;;;;;;;;5023532;28;20059;-78
2022/03/14 02:07:17;;;;;;;3.80;1.70;;;;;;;;;;5027401;28;20625;-78
2022/03/14 02:09:44;;;;;;;4.18;1.98;;;;;;;;;;5010975;28;20100;-79
2022/03/14 02:12:10;;;;;;;4.07;1.73;;;;;;;;;;5029634;28;20132;-78
2022/03/14 02:14:39;;;;;;;4.68;2.10;;;;;;;;;;5030832;28;20054;-78
2022/03/14 02:17:07;;;;;;;4.30;2.08;;;;;;;;;;5029512;28;20157;-77
2022/03/14 02:19:34;;;;;;;4.78;2.00;;;;;;;;;;5028793;28;20109;-77
2022/03/14 02:22:04;;;;;;;4.13;1.90;;;;;;;;;;5011072;28;20539;-79
2022/03/14 02:24:31;;;;;;;4.33;2.10;;;;;;;;;;5029367;28;20509;-79
2022/03/14 02:26:57;;;;;;;4.13;1.90;;;;;;;;;;5028675;28;20054;-77
2022/03/14 02:29:24;;;;;;;5.35;2.00;;;;;;;;;;5005383;28;20053;-78
2022/03/14 02:31:51;;;;;;;4.25;2.03;;;;;;;;;;5029778;28;20108;-78
2022/03/14 02:34:18;;;;;;;4.43;2.00;;;;;;;;;;5028781;28;20049;-78
2022/03/14 02:36:45;;;;;;;4.32;2.05;;;;;;;;;;5011421;28;20137;-77
2022/03/14 02:39:11;;;;;;;4.30;2.28;;;;;;;;;;5011771;28;20095;-78
2022/03/14 02:41:38;;;;;;;4.82;2.10;;;;;;;;;;5028387;28;20057;-78
2022/03/14 02:44:06;;;;;;;4.57;2.20;;;;;;;;;;5027627;28;20109;-77
2022/03/14 02:46:37;;;;;;;4.70;2.20;;;;;;;;;;5029862;28;20050;-77
2022/03/14 02:49:10;;;;;;;4.78;2.30;;;;;;;;;;5030197;28;20053;-77
2022/03/14 02:51:41;;;;;;;5.55;2.17;;;;;;;;;;5027833;28;20128;-77
2022/03/14 02:54:08;;;;;;;5.43;2.70;;;;;;;;;;5027782;28;20547;-78
2022/03/14 02:56:38;;;;;;;5.50;2.60;;;;;;;;;;5028280;28;20515;-78
2022/03/14 02:59:05;;;;;;;4.43;2.00;;;;;;;;;;5028027;28;20090;-78
2022/03/14 03:01:32;;;;;;;5.68;2.70;;;;;;;;;;5023038;28;21123;-77
2022/03/14 03:03:59;;;;;;;5.38;2.30;;;;;;;;;;5028508;28;20093;-77
2022/03/14 03:06:26;;;;;;;6.35;2.63;;;;;;;;;;5010342;28;20049;-78
2022/03/14 03:08:53;;;;;;;5.03;2.42;;;;;;;;;;5010884;28;20065;-78
2022/03/14 03:11:21;;;;;;;5.80;2.83;;;;;;;;;;5028411;28;20093;-78
2022/03/14 03:13:47;;;;;;;6.32;2.40;;;;;;;;;;5010392;28;20049;-77
2022/03/14 03:16:16;;;;;;;6.18;2.58;;;;;;;;;;5011939;28;20065;-78
2022/03/14 03:18:44;;;;;;;5.18;2.55;;;;;;;;;;5027296;28;20062;-78
2022/03/14 03:21:10;;;;;;;5.50;2.92;;;;;;;;;;5028999;28;20049;-77
2022/03/14 03:23:36;;;;;;;6.25;2.58;;;;;;;;;;5010636;28;20108;-77
2022/03/14 03:26:04;;;;;;;5.07;2.67;;;;;;;;;;5010760;28;20524;-77
2022/03/14 03:28:37;;;;;;;5.60;2.72;;;;;;;;;;5027126;28;20053;-78
2022/03/14 03:31:10;;;;;;;5.43;2.58;;;;;;;;;;5003373;28;20053;-77
2022/03/14 03:33:37;;;;;;;5.22;2.55;;;;;;;;;;5010478;28;20144;-78
2022/03/14 03:36:04;;;;;;;6.47;2.70;;;;;;;;;;5027151;28;20183;-77
2022/03/14 03:38:30;;;;;;;5.72;2.83;;;;;;;;;;5028000;28;20089;-78
2022/03/14 03:40:57;;;;;;;5.78;2.90;;;;;;;;;;5009418;28;20104;-77
2022/03/14 03:43:23;;;;;;;5.65;2.70;;;;;;;;;;5007859;28;20058;-79
2022/03/14 03:45:50;;;;;;;6.07;2.78;;;;;;;;;;5028418;28;20054;-77
2022/03/14 03:48:17;;;;;;;5.50;3.03;;;;;;;;;;5027480;28;20054;-79
2022/03/14 03:50:45;;;;;;;6.32;3.03;;;;;;;;;;5027965;28;20100;-78
2022/03/14 03:53:11;;;;;;;5.03;2.75;;;;;;;;;;5026965;28;20054;-78
2022/03/14 03:55:38;;;;;;;5.70;3.05;;;;;;;;;;5027090;28;20058;-78
2022/03/14 03:58:04;;;;;;;4.97;2.53;;;;;;;;;;5027330;28;20108;-77
2022/03/14 04:00:31;;;;;;;5.53;2.75;;;;;;;;;;5027662;28;20113;-78
2022/03/14 04:02:57;;;;;;;5.60;3.05;;;;;;;;;;5019072;28;20054;-77
2022/03/14 04:05:27;;;;;;;4.95;2.92;;;;;;;;;;5027149;28;20062;-78
2022/03/14 04:08:01;;;;;;;6.65;3.17;;;;;;;;;;5019836;28;20058;-78
2022/03/14 04:10:29;;;;;;;5.88;3.10;;;;;;;;;;5009280;28;20108;-78
2022/03/14 04:13:03;;;;;;;5.88;3.30;;;;;;;;;;5026359;28;20081;-78
2022/03/14 04:15:30;;;;;;;6.15;3.10;;;;;;;;;;5008865;28;20572;-78
2022/03/14 04:17:57;;;;;;;6.70;3.28;;;;;;;;;;5021127;28;20136;-79
2022/03/14 04:20:24;;;;;;;5.75;3.00;;;;;;;;;;5012036;28;20081;-80
2022/03/14 04:22:50;;;;;;;7.35;3.58;;;;;;;;;;5005843;28;20058;-78
2022/03/14 04:25:17;;;;;;;5.82;3.15;;;;;;;;;;5031001;28;20081;-78
2022/03/14 04:27:43;;;;;;;9.32;3.85;;;;;;;;;;5029504;28;20323;-79
2022/03/14 04:30:10;;;;;;;6.18;3.35;;;;;;;;;;5023770;28;20567;-78
2022/03/14 04:32:36;;;;;;;7.03;3.97;;;;;;;;;;5028480;28;20080;-78
2022/03/14 04:35:04;;;;;;;7.13;4.30;;;;;;;;;;5012992;28;20112;-78
2022/03/14 04:37:30;;;;;;;6.72;3.80;;;;;;;;;;5013277;28;20045;-77
2022/03/14 04:39:57;;;;;;;8.88;4.88;;;;;;;;;;5030087;28;20049;-77
2022/03/14 04:42:24;;;;;;;13.70;4.97;;;;;;;;;;5010519;28;20133;-78
2022/03/14 04:44:51;;;;;;;7.70;4.97;;;;;;;;;;5041283;28;20551;-78
2022/03/14 04:47:17;;;;;;;8.52;5.22;;;;;;;;;;5015628;28;20164;-78
2022/03/14 04:49:44;;;;;;;8.63;4.93;;;;;;;;;;5030352;28;20077;-78
2022/03/14 04:52:10;;;;;;;9.82;5.75;;;;;;;;;;5029713;28;20402;-78
2022/03/14 04:54:38;;;;;;;9.40;5.78;;;;;;;;;;5013002;28;20120;-78
2022/03/14 04:57:05;;;;;;;10.32;6.57;;;;;;;;;;5011913;28;20058;-78
2022/03/14 04:59:31;;;;;;;9.48;5.85;;;;;;;;;;5028012;28;20050;-78
2022/03/14 05:01:57;;;;;;;10.57;5.80;;;;;;;;;;5029148;28;20108;-78
2022/03/14 05:04:24;;;;;;;9.18;6.15;;;;;;;;;;5030553;28;20438;-78
2022/03/14 05:06:50;;;;;;;11.38;6.05;;;;;;;;;;5012514;28;20054;-78
2022/03/14 05:09:17;;;;;;;10.43;6.70;;;;;;;;;;5029508;28;20054;-78
2022/03/14 05:11:44;;;;;;;11.02;6.32;;;;;;;;;;5030110;28;20065;-78
2022/03/14 05:14:10;;;;;;;12.13;6.95;;;;;;;;;;5008561;28;20104;-79
2022/03/14 05:16:37;;;;;;;11.07;7.18;;;;;;;;;;5027050;28;20112;-78
2022/03/14 05:19:03;;;;;;;13.48;8.50;;;;;;;;;;5029887;28;21023;-79
2022/03/14 05:21:30;;;;;;;12.98;7.78;;;;;;;;;;5029346;28;20053;-78
2022/03/14 05:23:56;;;;;;;14.73;8.15;;;;;;;;;;5029896;28;20054;-78
2022/03/14 05:26:22;;;;;;;12.70;8.38;;;;;;;;;;5029832;28;20058;-77
2022/03/14 05:28:49;;;;;;;14.35;9.18;;;;;;;;;;5028915;28;20116;-77
2022/03/14 05:31:16;;;;;;;12.88;8.40;;;;;;;;;;5029464;28;20148;-77
2022/03/14 05:33:42;;;;;;;16.42;8.65;;;;;;;;;;5029342;28;20058;-78
2022/03/14 05:36:09;;;;;;;14.25;8.95;;;;;;;;;;5029066;28;20583;-77
2022/03/14 05:38:35;;;;;;;15.13;8.88;;;;;;;;;;5010901;28;20050;-78
2022/03/14 05:41:05;;;;;;;15.30;9.02;;;;;;;;;;5011838;28;20054;-78
2022/03/14 05:43:36;;;;;;;15.18;9.38;;;;;;;;;;5029771;28;20592;-77
2022/03/14 05:46:04;;;;;;;14.75;9.18;;;;;;;;;;5012101;28;20088;-78
2022/03/14 05:48:31;;;;;;;19.50;9.32;;;;;;;;;;5003799;28;20112;-78
2022/03/14 05:50:59;;;;;;;19.10;11.07;;;;;;;;;;5028843;28;20108;-77
2022/03/14 05:53:27;;;;;;;17.42;10.45;;;;;;;;;;5030374;28;20050;-78
2022/03/14 05:55:53;;;;;;;18.63;10.85;;;;;;;;;;5029475;28;20081;-78
2022/03/14 05:58:20;;;;;;;17.50;10.50;;;;;;;;;;5010845;28;20034;-78
2022/03/14 06:00:48;;;;;;;18.55;10.40;;;;;;;;;;5028477;28;20108;-78
2022/03/14 06:03:15;;;;;;;19.45;10.60;;;;;;;;;;5029425;28;20058;-77
2022/03/14 06:05:44;;;;;;;19.50;10.38;;;;;;;;;;5029338;28;20050;-79
2022/03/14 06:08:10;;;;;;;17.90;9.90;;;;;;;;;;5022492;28;20510;-78
2022/03/14 06:10:36;;;;;;;18.60;9.40;;;;;;;;;;5028314;28;20054;-78
2022/03/14 06:13:03;;;;;;;15.05;9.43;;;;;;;;;;5028460;28;20109;-78
2022/03/14 06:15:30;;;;;;;17.80;9.98;;;;;;;;;;5013766;28;20112;-79
2022/03/14 06:17:56;;;;;;;17.20;9.73;;;;;;;;;;5028603;28;20554;-79
2022/03/14 06:20:22;;;;;;;15.93;9.45;;;;;;;;;;5010742;28;20054;-80
2022/03/14 06:22:49;;;;;;;19.98;10.00;;;;;;;;;;5011294;28;20515;-79
2022/03/14 06:25:19;;;;;;;20.10;10.43;;;;;;;;;;5020836;28;20046;-79
2022/03/14 06:27:45;;;;;;;19.87;10.30;;;;;;;;;;5027468;28;20061;-79
2022/03/14 06:30:13;;;;;;;18.58;9.90;;;;;;;;;;5029584;28;20615;-79
2022/03/14 06:32:40;;;;;;;16.85;9.90;;;;;;;;;;5002407;28;20403;-79
2022/03/14 06:35:08;;;;;;;20.02;9.65;;;;;;;;;;5010335;28;20062;-78
2022/03/14 06:37:35;;;;;;;18.35;10.65;;;;;;;;;;5027998;28;20810;-80
2022/03/14 06:40:02;;;;;;;14.55;8.98;;;;;;;;;;5009039;28;20420;-81
2022/03/14 06:42:29;;;;;;;20.45;9.63;;;;;;;;;;5025930;28;20161;-79
2022/03/14 06:44:58;;;;;;;15.85;9.18;;;;;;;;;;5010063;28;20050;-80
2022/03/14 06:47:24;;;;;;;15.43;9.23;;;;;;;;;;5028117;28;20076;-79
2022/03/14 06:49:51;;;;;;;17.10;9.40;;;;;;;;;;5028189;28;20109;-80
2022/03/14 06:52:17;;;;;;;15.38;8.75;;;;;;;;;;5009370;28;20521;-79
2022/03/14 06:54:44;;;;;;;14.88;9.43;;;;;;;;;;5024681;28;20497;-80
2022/03/14 06:57:11;;;;;;;16.95;9.73;;;;;;;;;;5018001;28;20120;-79
2022/03/14 06:59:37;;;;;;;17.23;9.45;;;;;;;;;;5008933;28;20085;-79
2022/03/14 07:02:04;;;;;;;15.48;9.70;;;;;;;;;;5027655;28;20046;-80
2022/03/14 07:04:31;;;;;;;16.63;9.70;;;;;;;;;;5026814;28;20054;-79
2022/03/14 07:06:59;;;;;;;17.45;9.68;;;;;;;;;;5027096;28;20061;-79
2022/03/14 07:09:25;;;;;;;18.45;10.40;;;;;;;;;;5010519;28;20497;-79
2022/03/14 07:11:52;;;;;;;16.27;9.55;;;;;;;;;;5026641;28;20463;-80
2022/03/14 07:14:19;;;;;;;16.50;9.73;;;;;;;;;;5028095;28;20132;-79
2022/03/14 07:16:46;;;;;;;17.10;10.02;;;;;;;;;;5022455;28;20049;-80
2022/03/14 07:19:12;;;;;;;21.20;10.13;;;;;;;;;;5027785;28;20061;-78
2022/03/14 07:21:38;;;;;;;18.30;10.15;;;;;;;;;;5028455;28;20159;-80
2022/03/14 07:24:05;;;;;;;17.10;9.88;;;;;;;;;;5027466;28;20150;-79
2022/03/14 07:26:31;;;;;;;18.70;10.85;;;;;;;;;;5026579;28;20089;-81
2022/03/14 07:28:59;;;;;;;17.50;10.80;;;;;;;;;;5009877;28;20144;-80
2022/03/14 07:31:25;;;;;;;16.55;10.48;;;;;;;;;;5006129;28;20565;-79
2022/03/14 07:33:52;;;;;;;21.40;10.75;;;;;;;;;;4998874;28;20419;-79
2022/03/14 07:36:19;;;;;;;19.65;10.98;;;;;;;;;;5010200;28;20097;-80
2022/03/14 07:38:45;;;;;;;18.00;10.35;;;;;;;;;;5026916;28;20505;-78
2022/03/14 07:41:12;;;;;;;18.92;10.82;;;;;;;;;;5036580;28;20061;-79
2022/03/14 07:43:39;;;;;;;19.02;11.30;;;;;;;;;;5026941;28;20061;-81
2022/03/14 07:46:05;;;;;;;21.00;12.00;;;;;;;;;;5022880;28;20086;-79
2022/03/14 07:48:31;;;;;;;18.50;11.88;;;;;;;;;;5009047;28;20096;-79
2022/03/14 07:50:58;;;;;;;18.80;11.35;;;;;;;;;;5024226;28;20109;-78
2022/03/14 07:53:25;;;;;;;18.20;11.27;;;;;;;;;;5025484;28;20057;-78
2022/03/14 07:55:52;;;;;;;21.52;12.45;;;;;;;;;;5027646;28;20054;-79
2022/03/14 07:58:18;;;;;;;19.20;12.05;;;;;;;;;;5005682;28;20437;-79
2022/03/14 08:00:45;;;;;;;18.02;11.15;;;;;;;;;;5025768;28;20053;-78
2022/03/14 08:03:16;;;;;;;23.95;12.25;;;;;;;;;;4992795;28;20152;-78
2022/03/14 08:05:45;;;;;;;19.20;12.25;;;;;;;;;;5008615;28;20058;-78
2022/03/14 08:08:11;;;;;;;26.15;15.95;;;;;;;;;;5007813;28;20610;-78
2022/03/14 08:10:39;;;;;;;25.13;12.90;;;;;;;;;;4991264;28;20137;-78
2022/03/14 08:13:06;;;;;;;22.83;13.15;;;;;;;;;;5008173;28;20062;-79
2022/03/14 08:15:33;;;;;;;22.90;13.10;;;;;;;;;;5028059;28;20100;-78
2022/03/14 08:18:02;;;;;;;23.13;13.25;;;;;;;;;;5027785;28;20050;-78
2022/03/14 08:20:29;;;;;;;21.92;13.13;;;;;;;;;;5028168;28;20093;-79
2022/03/14 08:22:57;;;;;;;22.27;12.80;;;;;;;;;;5027350;28;20053;-78
2022/03/14 08:25:24;;;;;;;20.60;12.25;;;;;;;;;;5015003;28;20618;-78
2022/03/14 08:27:51;;;;;;;22.90;13.15;;;;;;;;;;5029882;28;20053;-80
2022/03/14 08:30:17;;;;;;;24.48;14.10;;;;;;;;;;5025644;28;20551;-78
2022/03/14 08:32:44;;;;;;;26.25;15.02;;;;;;;;;;5013631;28;20145;-80
2022/03/14 08:35:10;;;;;;;26.35;15.40;;;;;;;;;;5026428;28;20054;-80
2022/03/14 08:37:41;;;;;;;26.98;15.57;;;;;;;;;;5027366;28;20054;-79
2022/03/14 08:40:09;;;;;;;27.80;15.15;;;;;;;;;;5009319;28;20065;-79
2022/03/14 08:42:36;;;;;;;30.98;17.20;;;;;;;;;;5009612;28;20058;-80
2022/03/14 08:45:03;;;;;;;27.38;16.02;;;;;;;;;;5023969;28;20591;-78
2022/03/14 08:47:30;;;;;;;26.55;15.23;;;;;;;;;;5009135;28;20054;-78
2022/03/14 08:49:56;;;;;;;28.92;15.13;;;;;;;;;;5016602;28;20551;-78
2022/03/14 08:52:24;;;;;;;28.60;16.25;;;;;;;;;;5027369;28;20513;-79
2022/03/14 08:54:50;;;;;;;28.67;15.00;;;;;;;;;;5026770;28;20054;-80
2022/03/14 08:57:17;;;;;;;24.83;14.63;;;;;;;;;;5016117;28;20050;-79
2022/03/14 08:59:44;;;;;;;26.65;15.50;;;;;;;;;;5025565;28;20128;-78
2022/03/14 09:02:10;;;;;;;26.60;14.63;;;;;;;;;;5008419;28;20109;-79
2022/03/14 09:04:40;;;;;;;30.73;16.00;;;;;;;;;;5029114;28;20058;-78
2022/03/14 09:07:06;;;;;;;27.58;14.48;;;;;;;;;;5029034;28;20054;-80
2022/03/14 09:09:34;;;;;;;31.38;14.75;;;;;;;;;;5028612;28;20140;-79
2022/03/14 09:12:01;;;;;;;27.40;15.55;;;;;;;;;;5029407;28;20050;-78
2022/03/14 09:14:27;;;;;;;25.85;13.80;;;;;;;;;;5028408;28;20505;-79
2022/03/14 09:16:53;;;;;;;25.27;14.25;;;;;;;;;;5022036;28;20050;-80
2022/03/14 09:19:20;;;;;;;24.42;14.05;;;;;;;;;;5029181;28;20065;-79
2022/03/14 09:21:46;;;;;;;24.10;13.70;;;;;;;;;;5006872;28;20513;-79
2022/03/14 09:24:12;;;;;;;24.85;13.25;;;;;;;;;;5029165;28;20611;-79
2022/03/14 09:26:39;;;;;;;26.00;13.43;;;;;;;;;;5007585;28;20108;-80
2022/03/14 09:29:06;;;;;;;21.63;13.85;;;;;;;;;;5028278;28;20053;-79
2022/03/14 09:31:32;;;;;;;20.98;12.45;;;;;;;;;;5028227;28;20050;-79
2022/03/14 09:34:00;;;;;;;23.38;13.57;;;;;;;;;;5011800;28;20050;-81
2022/03/14 09:36:26;;;;;;;20.50;12.55;;;;;;;;;;5026467;28;20054;-80
2022/03/14 09:38:52;;;;;;;25.13;13.55;;;;;;;;;;5027691;28;20057;-79
2022/03/14 09:41:19;;;;;;;20.95;12.07;;;;;;;;;;5026110;28;20053;-79
2022/03/14 09:43:47;;;;;;;20.13;12.27;;;;;;;;;;5011310;28;20058;-79
2022/03/14 09:46:13;;;;;;;21.17;12.18;;;;;;;;;;5029039;28;20084;-79
2022/03/14 09:48:47;;;;;;;18.75;11.88;;;;;;;;;;5009748;28;20418;-79
2022/03/14 09:51:15;;;;;;;25.77;12.13;;;;;;;;;;5022836;28;20414;-80
2022/03/14 09:53:42;;;;;;;21.50;11.60;;;;;;;;;;5026141;28;20054;-79
2022/03/14 09:56:08;;;;;;;19.80;11.35;;;;;;;;;;5016246;28;20535;-79
2022/03/14 09:58:35;;;;;;;21.15;11.48;;;;;;;;;;5026152;28;20508;-78
2022/03/14 10:01:04;;;;;;;18.83;11.00;;;;;;;;;;5010865;28;20478;-79
2022/03/14 10:03:31;;;;;;;19.00;11.18;;;;;;;;;;5026033;28;20054;-80
2022/03/14 10:05:58;;;;;;;19.05;11.05;;;;;;;;;;5028875;28;20501;-79
2022/03/14 10:08:24;;;;;;;23.17;10.85;;;;;;;;;;5021764;28;20062;-79
2022/03/14 10:10:51;;;;;;;18.10;11.05;;;;;;;;;;5023139;28;20050;-79
2022/03/14 10:13:37;;;;;;;18.23;10.68;;;;;;;;;;5028899;28;20050;-79
2022/03/14 10:16:04;;;;;;;21.98;10.93;;;;;;;;;;5027114;28;20513;-81
2022/03/14 10:18:36;;;;;;;23.75;11.38;;;;;;;;;;5024657;28;20058;-79
2022/03/14 10:21:06;;;;;;;22.73;11.15;;;;;;;;;;5011020;28;20057;-80
2022/03/14 10:23:37;;;;;;;18.85;11.15;;;;;;;;;;5010432;28;20951;-79
2022/03/14 10:26:06;;;;;;;17.38;10.98;;;;;;;;;;5012113;28;20061;-79
2022/03/14 10:28:35;;;;;;;22.65;11.18;;;;;;;;;;5033569;28;20041;-79
2022/03/14 10:31:29;;;;;;;18.05;10.55;;;;;;;;;;5029777;28;20085;-79
2022/03/14 10:34:00;;;;;;;21.38;10.18;;;;;;;;;;4997489;28;20054;-79
2022/03/14 10:36:37;;;;;;;15.55;8.68;;;;;;;;;;5005868;28;20144;-79
2022/03/14 10:39:13;;;;;;;17.40;8.30;;;;;;;;;;5027326;28;20059;-80
2022/03/14 10:41:39;;;;;;;17.30;8.23;;;;;;;;;;5010041;28;20057;-80
2022/03/14 10:44:25;;;;;;;20.02;9.45;;;;;;;;;;5020790;28;20489;-79
2022/03/14 10:46:52;;;;;;;18.25;8.60;;;;;;;;;;5028781;28;20054;-80
2022/03/14 10:49:25;;;;;;;17.92;9.05;;;;;;;;;;5028442;28;20463;-79
2022/03/14 10:51:53;;;;;;;18.08;8.77;;;;;;;;;;5011275;28;20109;-78
2022/03/14 10:54:19;;;;;;;17.23;9.10;;;;;;;;;;5028758;28;20053;-79
2022/03/14 10:57:04;;;;;;;22.23;8.77;;;;;;;;;;5009700;28;20062;-78
2022/03/14 10:59:41;;;;;;;17.08;9.13;;;;;;;;;;5028267;28;20097;-78
2022/03/14 11:02:11;;;;;;;19.13;9.40;;;;;;;;;;5024046;28;20062;-78
2022/03/14 11:04:38;;;;;;;;;;;;;;;;;;5027658;28;20054;-78
2022/03/14 11:07:04;;;;;;;19.70;9.23;;;;;;;;;;5024020;28;45051;-78
2022/03/14 11:09:57;;;;;;;20.23;9.32;;;;;;;;;;5024772;28;20054;-79
2022/03/14 11:12:24;;;;;;;22.98;9.48;;;;;;;;;;5023340;28;20132;-78
2022/03/14 11:14:51;;;;;;;22.60;9.32;;;;;;;;;;5024945;28;20054;-79
2022/03/14 11:17:19;;;;;;;19.80;9.85;;;;;;;;;;5025944;28;20085;-80
2022/03/14 11:19:45;;;;;;;15.75;9.10;;;;;;;;;;5026474;28;20081;-79
2022/03/14 11:22:13;;;;;;;22.23;9.52;;;;;;;;;;5009696;28;20062;-79
2022/03/14 11:24:42;;;;;;;17.25;9.93;;;;;;;;;;5026883;28;20104;-80
2022/03/14 11:27:18;;;;;;;18.30;9.80;;;;;;;;;;5009523;28;20053;-79
2022/03/14 11:29:45;;;;;;;21.55;9.77;;;;;;;;;;5007842;28;20050;-81
2022/03/14 11:32:11;;;;;;;21.35;8.90;;;;;;;;;;5025386;28;20097;-79
2022/03/14 11:35:00;;;;;;;18.05;9.30;;;;;;;;;;5026790;28;20104;-79
2022/03/14 11:37:29;;;;;;;18.27;9.00;;;;;;;;;;5008820;28;20568;-79
2022/03/14 11:39:56;;;;;;;16.60;9.15;;;;;;;;;;5026269;28;20420;-79
2022/03/14 11:42:23;;;;;;;18.17;9.13;;;;;;;;;;5027388;28;20140;-79
2022/03/14 11:44:50;;;;;;;18.27;8.35;;;;;;;;;;5011089;28;20074;-79
2022/03/14 11:47:19;;;;;;;20.05;9.10;;;;;;;;;;5027820;28;20176;-79
2022/03/14 11:49:45;;;;;;;17.55;8.77;;;;;;;;;;5008185;28;20053;-80
2022/03/14 11:52:14;;;;;;;16.08;8.55;;;;;;;;;;5027979;28;20050;-79
2022/03/14 11:54:44;;;;;;;14.45;7.88;;;;;;;;;;5010276;28;20112;-79
2022/03/14 11:57:11;;;;;;;16.25;8.40;;;;;;;;;;5015392;28;20054;-79
2022/03/14 11:59:37;;;;;;;16.30;8.27;;;;;;;;;;5014003;28;20151;-79
2022/03/14 12:02:05;;;;;;;15.82;7.85;;;;;;;;;;5011605;28;20081;-78
2022/03/14 12:04:32;;;;;;;14.82;7.85;;;;;;;;;;5009698;28;20058;-80
2022/03/14 12:06:58;;;;;;;19.02;7.97;;;;;;;;;;5027811;28;20706;-79
2022/03/14 12:09:25;;;;;;;14.80;7.18;;;;;;;;;;5008363;28;20571;-78
2022/03/14 12:11:51;;;;;;;15.85;7.53;;;;;;;;;;5010054;28;20050;-79
2022/03/14 12:14:37;;;;;;;20.73;7.95;;;;;;;;;;5025582;28;20050;-78
2022/03/14 12:17:23;;;;;;;14.07;7.07;;;;;;;;;;5025856;28;20101;-79
2022/03/14 12:19:51;;;;;;;15.45;6.82;;;;;;;;;;5026676;28;20058;-79
2022/03/14 12:22:29;;;;;;;11.73;6.35;;;;;;;;;;5026766;28;20062;-78
2022/03/14 12:24:56;;;;;;;12.60;6.70;;;;;;;;;;5027185;28;20058;-79
2022/03/14 12:27:35;;;;;;;13.27;6.25;;;;;;;;;;5010634;28;20823;-80
2022/03/14 12:30:06;;;;;;;14.52;7.10;;;;;;;;;;5008699;28;20054;-78
2022/03/14 12:32:32;;;;;;;;;;;;;;;;;;5007979;28;20050;-79
2022/03/14 12:35:01;;;;;;;13.88;6.18;;;;;;;;;;5023721;28;43906;-78
2022/03/14 12:37:36;;;;;;;12.70;5.28;;;;;;;;;;5029177;28;20089;-79
2022/03/14 12:40:03;;;;;;;11.13;5.18;;;;;;;;;;5018731;28;20081;-78
2022/03/14 12:42:37;;;;;;;13.55;5.65;;;;;;;;;;5032445;28;20057;-79
2022/03/14 12:45:13;;;;;;;11.65;6.38;;;;;;;;;;5027295;28;20579;-78
2022/03/14 12:47:41;;;;;;;17.90;5.35;;;;;;;;;;5024974;28;20046;-78
2022/03/14 12:50:07;;;;;;;13.18;5.53;;;;;;;;;;5012670;28;20049;-78
2022/03/14 12:52:54;;;;;;;14.30;5.75;;;;;;;;;;5004602;28;20112;-79
2022/03/14 12:55:20;;;;;;;14.73;6.00;;;;;;;;;;5030556;28;20116;-80
2022/03/14 12:57:51;;;;;;;18.02;5.93;;;;;;;;;;5012667;28;20112;-78
2022/03/14 13:00:18;;;;;;;15.95;5.90;;;;;;;;;;5004129;28;20050;-78
2022/03/14 13:02:44;;;;;;;12.25;5.65;;;;;;;;;;5030540;28;20064;-79
2022/03/14 13:05:11;;;;;;;13.70;5.75;;;;;;;;;;5030655;28;20053;-78
2022/03/14 13:07:38;;;;;;;10.45;5.57;;;;;;;;;;5030712;28;20097;-78
2022/03/14 13:10:04;;;;;;;14.55;6.32;;;;;;;;;;5013273;28;20602;-78
2022/03/14 13:12:32;;;;;;;13.38;5.72;;;;;;;;;;5012945;28;20797;-78
2022/03/14 13:15:09;;;;;;;12.80;5.82;;;;;;;;;;5031770;28;20737;-78
2022/03/14 13:17:49;;;;;;;13.38;5.65;;;;;;;;;;5030080;28;20065;-79
2022/03/14 13:20:19;;;;;;;13.70;6.10;;;;;;;;;;5010081;28;21509;-79
2022/03/14 13:22:46;;;;;;;15.07;6.55;;;;;;;;;;5029094;28;20480;-79
2022/03/14 13:25:27;;;;;;;15.05;5.95;;;;;;;;;;5012423;28;20121;-78
2022/03/14 13:27:54;;;;;;;15.15;5.72;;;;;;;;;;5023934;28;20054;-78
2022/03/14 13:30:20;;;;;;;13.95;6.63;;;;;;;;;;5031858;28;20053;-77
2022/03/14 13:32:46;;;;;;;16.45;6.25;;;;;;;;;;5017736;28;20058;-76
2022/03/14 13:35:13;;;;;;;13.75;6.53;;;;;;;;;;5011052;28;20050;-75
2022/03/14 13:37:43;;;;;;;15.82;6.20;;;;;;;;;;5028903;28;20062;-76
2022/03/14 13:40:20;;;;;;;12.38;6.05;;;;;;;;;;5004789;28;20119;-78
2022/03/14 13:42:48;;;;;;;14.98;6.40;;;;;;;;;;5012321;28;20097;-76
2022/03/14 13:45:14;;;;;;;12.40;5.60;;;;;;;;;;5028976;28;20116;-80
2022/03/14 13:47:40;;;;;;;14.05;5.88;;;;;;;;;;5029501;28;20843;-79
2022/03/14 13:50:07;;;;;;;12.45;5.65;;;;;;;;;;5011572;28;20108;-81
2022/03/14 13:52:33;;;;;;;15.25;6.28;;;;;;;;;;5028889;28;20136;-78
2022/03/14 13:55:10;;;;;;;16.60;5.88;;;;;;;;;;5011006;28;22162;-77
2022/03/14 13:57:36;;;;;;;18.05;6.20;;;;;;;;;;5029761;28;20144;-76
2022/03/14 14:00:11;;;;;;;16.45;6.55;;;;;;;;;;5033767;28;20061;-77
2022/03/14 14:02:37;;;;;;;15.02;6.30;;;;;;;;;;5029568;28;20919;-78
2022/03/14 14:05:08;;;;;;;16.45;6.63;;;;;;;;;;5010650;28;20110;-78
2022/03/14 14:07:34;;;;;;;17.33;7.00;;;;;;;;;;5022172;28;20104;-77
2022/03/14 14:10:10;;;;;;;14.75;6.82;;;;;;;;;;5009805;28;20144;-77
2022/03/14 14:12:36;;;;;;;15.35;6.78;;;;;;;;;;5006119;28;20086;-77
2022/03/14 14:15:03;;;;;;;16.13;6.63;;;;;;;;;;5008612;28;20058;-77
2022/03/14 14:17:35;;;;;;;13.88;6.60;;;;;;;;;;5010952;28;20085;-77
2022/03/14 14:20:10;;;;;;;15.05;6.82;;;;;;;;;;5023788;28;20112;-77
2022/03/14 14:22:36;;;;;;;15.35;6.78;;;;;;;;;;5026319;28;20501;-79
2022/03/14 14:25:23;;;;;;;12.70;6.20;;;;;;;;;;5026871;28;20517;-78
2022/03/14 14:27:50;;;;;;;13.75;6.30;;;;;;;;;;5004210;28;20054;-78
2022/03/14 14:30:23;;;;;;;16.38;6.53;;;;;;;;;;5028017;28;20136;-78
2022/03/14 14:32:50;;;;;;;13.45;6.30;;;;;;;;;;5024425;28;20064;-77
2022/03/14 14:35:17;;;;;;;14.75;6.55;;;;;;;;;;5028307;28;20112;-78